createdAt,value
2019-06-10T00:04:27.612Z,12.2
2019-06-10T00:15:27.330Z,12.2
2019-06-10T00:21:11.241Z,12.3
2019-06-10T00:26:42.524Z,12.3
2019-06-10T00:32:13.262Z,12.3
2019-06-10T00:37:51.183Z,12.3
2019-06-10T00:43:22.422Z,12.4
2019-06-10T00:48:54.196Z,12.4
2019-06-10T00:54:27.827Z,12.3
2019-06-10T01:00:01.621Z,12.3
2019-06-10T01:05:34.927Z,12.1
2019-06-10T01:11:11.494Z,12.1
2019-06-10T01:16:41.121Z,12
2019-06-10T01:22:13.567Z,11.8
2019-06-10T01:27:54.586Z,11.9
2019-06-10T01:33:21.199Z,11.9
2019-06-10T01:38:57.265Z,11.9
2019-06-10T01:44:30.780Z,11.8
2019-06-10T01:55:38.121Z,11.8
2019-06-10T02:01:05.803Z,11.9
2019-06-10T02:06:46.107Z,11.9
2019-06-10T02:12:17.899Z,11.9
2019-06-10T02:17:47.764Z,11.9
2019-06-10T02:23:23.187Z,11.9
2019-06-10T02:28:57.553Z,11.9
2019-06-10T02:34:26.501Z,11.9
2019-06-10T02:40:04.061Z,11.9
2019-06-10T02:45:33.532Z,12.1
2019-06-10T02:51:04.796Z,12.1
2019-06-10T02:56:39.403Z,12.1
2019-06-10T03:02:15.682Z,12.1
2019-06-10T03:07:44.497Z,12.1
2019-06-10T03:13:13.665Z,12
2019-06-10T03:18:48.947Z,12
2019-06-10T03:24:28.817Z,12
2019-06-10T03:29:55.720Z,11.9
2019-06-10T03:35:24.173Z,12
2019-06-10T03:41:03.358Z,12.1
2019-06-10T03:46:33.888Z,11.9
2019-06-10T03:52:04.217Z,11.9
2019-06-10T03:57:42.722Z,12
2019-06-10T04:03:17.251Z,12
2019-06-10T04:08:52.201Z,12
2019-06-10T04:14:22.094Z,12.1
2019-06-10T04:20:07.823Z,12
2019-06-10T04:25:24.633Z,12.2
2019-06-10T04:31:02.866Z,12.2
2019-06-10T04:36:29.390Z,12.1
2019-06-10T04:42:08.609Z,12.1
2019-06-10T04:47:46.847Z,12.2
2019-06-10T04:53:21.152Z,12.2
2019-06-10T04:58:44.075Z,12.3
2019-06-10T05:04:17.212Z,12.3
2019-06-10T05:09:58.620Z,12.4
2019-06-10T05:15:32.158Z,12.4
2019-06-10T05:21:03.408Z,12.4
2019-06-10T05:26:30.132Z,12.4
2019-06-10T05:32:12.624Z,12.4
2019-06-10T05:37:34.081Z,12.5
2019-06-10T05:43:12.892Z,12.5
2019-06-10T05:48:45.907Z,12.5
2019-06-10T05:54:16.165Z,12.5
2019-06-10T05:59:52.311Z,12.6
2019-06-10T06:05:23.908Z,12.6
2019-06-10T06:10:58.014Z,12.6
2019-06-10T06:16:32.603Z,12.7
2019-06-10T06:22:08.457Z,12.7
2019-06-10T06:27:42.493Z,12.7
2019-06-10T06:33:05.823Z,12.6
2019-06-10T06:38:50.085Z,12.5
2019-06-10T06:44:13.174Z,12.6
2019-06-10T06:49:49.809Z,12.7
2019-06-10T06:55:25.559Z,12.9
2019-06-10T07:01:01.239Z,12.6
2019-06-10T07:06:32.461Z,12.8
2019-06-10T07:11:57.619Z,13
2019-06-10T07:17:39.015Z,13.2
2019-06-10T07:23:13.893Z,13.3
2019-06-10T07:28:53.356Z,13.3
2019-06-10T07:34:23.345Z,13.4
2019-06-10T07:39:45.382Z,13.5
2019-06-10T07:45:22.112Z,13.4
2019-06-10T07:51:03.062Z,13.2
2019-06-10T07:56:24.272Z,13.3
2019-06-10T08:02:12.316Z,13.3
2019-06-10T08:07:44.030Z,13.4
2019-06-10T08:13:14.031Z,13.6
2019-06-10T08:18:56.599Z,14.1
2019-06-10T08:24:25.212Z,14.4
2019-06-10T08:30:13.066Z,14.8
2019-06-10T08:35:39.075Z,14.9
2019-06-10T08:41:12.210Z,15.7
2019-06-10T08:46:40.657Z,15.9
2019-06-10T08:52:09.974Z,16.1
2019-06-10T08:57:47.432Z,16.6
2019-06-10T09:03:32.409Z,16
2019-06-10T09:08:58.083Z,16.6
2019-06-10T09:14:32.659Z,17.1
2019-06-10T09:20:04.833Z,17.6
2019-06-10T09:25:39.135Z,17.5
2019-06-10T09:31:19.689Z,16.5
2019-06-10T09:36:56.367Z,16.4
2019-06-10T09:42:29.246Z,16.8
2019-06-10T09:47:59.751Z,16.9
2019-06-10T09:53:35.634Z,17.2
2019-06-10T09:59:06.034Z,16.7
2019-06-10T10:04:57.180Z,17.1
2019-06-10T10:10:24.139Z,17.8
2019-06-10T10:15:58.067Z,18
2019-06-10T10:21:24.896Z,17
2019-06-10T10:27:06.991Z,17.1
2019-06-10T10:32:37.867Z,17
2019-06-10T10:38:14.299Z,16.9
2019-06-10T10:43:43.495Z,17
2019-06-10T10:49:22.287Z,16.3
2019-06-10T11:00:37.443Z,15.5
2019-06-10T11:06:00.600Z,15.4
2019-06-10T11:11:37.133Z,15.4
2019-06-10T11:17:05.789Z,15.3
2019-06-10T11:22:47.569Z,15.3
2019-06-10T11:28:15.316Z,15
2019-06-10T11:33:46.928Z,15
2019-06-10T11:39:24.532Z,15
2019-06-10T11:44:57.819Z,15
2019-06-10T11:50:30.055Z,15
2019-06-10T11:56:06.956Z,15.2
2019-06-10T12:01:42.594Z,15.2
2019-06-10T12:07:12.942Z,15.4
2019-06-10T12:12:58.842Z,15.6
2019-06-10T12:18:22.866Z,16
2019-06-10T12:23:58.950Z,16.3
2019-06-10T12:29:32.123Z,16.4
2019-06-10T12:35:14.511Z,16.1
2019-06-10T12:40:56.721Z,15.9
2019-06-10T12:46:23.521Z,16
2019-06-10T12:52:05.263Z,15.8
2019-06-10T12:57:35.558Z,15.6
2019-06-10T13:03:09.614Z,15.3
2019-06-10T13:08:37.484Z,15.1
2019-06-10T13:14:08.687Z,15.1
2019-06-10T13:19:54.941Z,14.8
2019-06-10T13:25:27.596Z,14.6
2019-06-10T13:30:53.994Z,14.5
2019-06-10T13:36:33.024Z,14.6
2019-06-10T13:41:57.572Z,14.6
2019-06-10T13:47:34.469Z,14.5
2019-06-10T13:53:12.804Z,14.4
2019-06-10T13:58:47.052Z,14.4
2019-06-10T14:04:25.683Z,14.1
2019-06-10T14:09:56.766Z,14.1
2019-06-10T14:15:28.943Z,14.1
2019-06-10T14:21:02.983Z,14
2019-06-10T14:26:40.479Z,14
2019-06-10T14:32:07.327Z,14.2
2019-06-10T14:37:43.208Z,14.4
2019-06-10T14:43:22.796Z,14.3
2019-06-10T14:48:54.939Z,14.2
2019-06-10T14:54:22.755Z,14.2
2019-06-10T14:59:53.262Z,14.3
2019-06-10T15:05:32.278Z,14.1
2019-06-10T15:11:09.660Z,14.1
2019-06-10T15:16:37.515Z,14
2019-06-10T15:22:17.529Z,14
2019-06-10T15:27:43.045Z,13.8
2019-06-10T15:33:16.522Z,13.8
2019-06-10T15:38:52.489Z,13.7
2019-06-10T15:44:45.781Z,13.7
2019-06-10T15:49:55.827Z,13.6
2019-06-10T15:55:55.298Z,13.6
2019-06-10T16:01:18.191Z,13.4
2019-06-10T16:06:46.299Z,13.4
2019-06-10T16:12:08.973Z,13.4
2019-06-10T16:17:49.246Z,13.4
2019-06-10T16:23:27.922Z,13.5
2019-06-10T16:28:58.829Z,13.5
2019-06-10T16:34:28.629Z,13.5
2019-06-10T16:39:59.211Z,13.5
2019-06-10T16:45:33.836Z,13.4
2019-06-10T16:51:09.215Z,13.4
2019-06-10T16:56:40.041Z,13.3
2019-06-10T17:02:19.179Z,13.3
2019-06-10T17:07:43.466Z,13.2
2019-06-10T17:13:15.831Z,13.3
2019-06-10T17:18:52.884Z,13.2
2019-06-10T17:24:33.730Z,13.2
2019-06-10T17:35:36.754Z,13.3
2019-06-10T17:41:13.080Z,13.3
2019-06-10T17:46:42.455Z,13.4
2019-06-10T17:52:08.511Z,13.4
2019-06-10T17:57:47.502Z,13.2
2019-06-10T18:03:13.256Z,13.3
2019-06-10T18:08:53.352Z,13.1
2019-06-10T18:14:22.890Z,13.2
2019-06-10T18:25:36.746Z,13.1
2019-06-10T18:31:04.903Z,13
2019-06-10T18:36:43.898Z,13
2019-06-10T18:42:15.478Z,12.9
2019-06-10T18:47:48.190Z,12.8
2019-06-10T18:53:23.872Z,12.8
2019-06-10T18:58:49.673Z,12.8
2019-06-10T19:04:17.503Z,12.9
2019-06-10T19:09:54.921Z,12.8
2019-06-10T19:15:35.838Z,12.8
2019-06-10T19:21:08.696Z,12.8
2019-06-10T19:26:30.901Z,12.8
2019-06-10T19:32:04.140Z,12.8
2019-06-10T19:37:42.415Z,12.8
2019-06-10T19:43:14.392Z,12.7
2019-06-10T19:48:50.707Z,12.7
2019-06-10T19:54:20.637Z,12.7
2019-06-10T20:00:04.708Z,12.7
2019-06-10T20:05:32.554Z,12.7
2019-06-10T20:11:03.385Z,12.7
2019-06-10T20:16:33.809Z,12.7
2019-06-10T20:22:00.687Z,12.6
2019-06-10T20:27:33.129Z,12.5
2019-06-10T20:33:13.421Z,12.6
2019-06-10T20:38:48.339Z,12.5
2019-06-10T20:44:14.028Z,12.5
2019-06-10T20:49:51.370Z,12.2
2019-06-10T20:55:23.334Z,12.3
2019-06-10T21:00:56.929Z,12.2
2019-06-10T21:06:25.579Z,12.1
2019-06-10T21:12:01.935Z,12.3
2019-06-10T21:17:33.255Z,12.4
2019-06-10T21:23:06.294Z,12.3
2019-06-10T21:28:35.888Z,12.2
2019-06-10T21:34:19.008Z,12.3
2019-06-10T21:39:55.375Z,12.3
2019-06-10T21:45:22.826Z,12.2
2019-06-10T21:51:00.025Z,12.3
2019-06-10T21:56:32.875Z,12.3
2019-06-10T22:01:54.725Z,12.3
2019-06-10T22:07:36.097Z,12.2
2019-06-10T22:13:12.263Z,12.3
2019-06-10T22:18:32.429Z,12.2
2019-06-10T22:24:17.263Z,12.2
2019-06-10T22:29:47.291Z,12.3
2019-06-10T22:35:23.084Z,12.3
2019-06-10T22:40:55.710Z,12.1
2019-06-10T22:46:23.757Z,11.9
2019-06-10T22:52:01.200Z,11.9
2019-06-10T22:57:23.095Z,11.9
2019-06-10T23:02:57.951Z,12
2019-06-10T23:08:33.466Z,12
2019-06-10T23:14:07.881Z,12.1
2019-06-10T23:19:36.039Z,12
2019-06-10T23:25:09.339Z,11.9
2019-06-10T23:30:42.594Z,11.9
2019-06-10T23:36:14.025Z,11.9
2019-06-10T23:41:47.001Z,11.8
2019-06-10T23:47:25.189Z,11.8
2019-06-10T23:53:06.675Z,11.9
2019-06-10T23:58:32.805Z,11.8
